sensor_id;sensor_type;location;lat;lon;timestamp;temperature;humidity
12115;DHT22;6121;49.810;6.418;2024-01-07T00:00:36;4.70;99.90
12115;DHT22;6121;49.810;6.418;2024-01-07T00:03:02;4.80;99.90
12115;DHT22;6121;49.810;6.418;2024-01-07T00:05:28;4.70;99.90
12115;DHT22;6121;49.810;6.418;2024-01-07T00:12:46;4.70;99.90
12115;DHT22;6121;49.810;6.418;2024-01-07T00:15:13;4.70;99.90
12115;DHT22;6121;49.810;6.418;2024-01-07T00:17:39;4.70;99.90
12115;DHT22;6121;49.810;6.418;2024-01-07T00:20:06;4.70;99.90
12115;DHT22;6121;49.810;6.418;2024-01-07T00:22:32;4.70;99.90
12115;DHT22;6121;49.810;6.418;2024-01-07T00:24:58;4.70;99.90
12115;DHT22;6121;49.810;6.418;2024-01-07T00:29:50;4.60;99.90
12115;DHT22;6121;49.810;6.418;2024-01-07T00:32:16;4.70;99.90
12115;DHT22;6121;49.810;6.418;2024-01-07T00:34:41;4.70;99.90
12115;DHT22;6121;49.810;6.418;2024-01-07T00:37:07;4.60;99.90
12115;DHT22;6121;49.810;6.418;2024-01-07T00:39:33;4.70;99.90
12115;DHT22;6121;49.810;6.418;2024-01-07T00:46:51;4.60;99.90
12115;DHT22;6121;49.810;6.418;2024-01-07T00:49:17;4.60;99.90
12115;DHT22;6121;49.810;6.418;2024-01-07T00:51:43;4.50;99.90
12115;DHT22;6121;49.810;6.418;2024-01-07T00:54:09;4.50;99.90
12115;DHT22;6121;49.810;6.418;2024-01-07T00:56:35;4.50;99.90
12115;DHT22;6121;49.810;6.418;2024-01-07T01:01:27;4.60;99.90
12115;DHT22;6121;49.810;6.418;2024-01-07T01:03:53;4.50;99.90
12115;DHT22;6121;49.810;6.418;2024-01-07T01:06:19;4.40;99.90
12115;DHT22;6121;49.810;6.418;2024-01-07T01:08:45;4.50;99.90
12115;DHT22;6121;49.810;6.418;2024-01-07T01:11:11;4.50;99.90
12115;DHT22;6121;49.810;6.418;2024-01-07T01:16:03;4.50;99.90
12115;DHT22;6121;49.810;6.418;2024-01-07T01:18:29;4.60;99.90
12115;DHT22;6121;49.810;6.418;2024-01-07T01:20:56;4.60;99.90
12115;DHT22;6121;49.810;6.418;2024-01-07T01:23:22;4.60;99.90
12115;DHT22;6121;49.810;6.418;2024-01-07T01:25:48;4.50;99.90
12115;DHT22;6121;49.810;6.418;2024-01-07T01:28:14;4.50;99.90
12115;DHT22;6121;49.810;6.418;2024-01-07T01:33:06;4.50;99.90
12115;DHT22;6121;49.810;6.418;2024-01-07T01:35:32;4.50;99.90
12115;DHT22;6121;49.810;6.418;2024-01-07T01:37:58;4.50;99.90
12115;DHT22;6121;49.810;6.418;2024-01-07T01:42:50;4.40;99.90
12115;DHT22;6121;49.810;6.418;2024-01-07T01:45:16;4.40;99.90
12115;DHT22;6121;49.810;6.418;2024-01-07T01:47:42;4.50;99.90
12115;DHT22;6121;49.810;6.418;2024-01-07T01:50:11;4.40;99.90
12115;DHT22;6121;49.810;6.418;2024-01-07T01:52:37;4.40;99.90
12115;DHT22;6121;49.810;6.418;2024-01-07T01:55:03;4.30;99.90
12115;DHT22;6121;49.810;6.418;2024-01-07T02:00:03;4.40;99.90
12115;DHT22;6121;49.810;6.418;2024-01-07T02:05:03;4.20;99.90
12115;DHT22;6121;49.810;6.418;2024-01-07T02:09:56;4.30;99.90
12115;DHT22;6121;49.810;6.418;2024-01-07T02:12:22;4.20;99.90
12115;DHT22;6121;49.810;6.418;2024-01-07T02:14:48;4.30;99.90
12115;DHT22;6121;49.810;6.418;2024-01-07T02:17:15;4.20;99.90
12115;DHT22;6121;49.810;6.418;2024-01-07T02:19:40;4.20;99.90
12115;DHT22;6121;49.810;6.418;2024-01-07T02:24:32;4.20;99.90
12115;DHT22;6121;49.810;6.418;2024-01-07T02:29:28;4.10;99.90
12115;DHT22;6121;49.810;6.418;2024-01-07T02:31:55;4.10;99.90
12115;DHT22;6121;49.810;6.418;2024-01-07T02:34:20;4.00;99.90
12115;DHT22;6121;49.810;6.418;2024-01-07T02:36:46;4.00;99.90
12115;DHT22;6121;49.810;6.418;2024-01-07T02:39:12;4.00;99.90
12115;DHT22;6121;49.810;6.418;2024-01-07T02:44:08;4.10;99.90
12115;DHT22;6121;49.810;6.418;2024-01-07T02:46:35;4.00;99.90
12115;DHT22;6121;49.810;6.418;2024-01-07T02:49:01;3.90;99.90
12115;DHT22;6121;49.810;6.418;2024-01-07T02:53:53;4.00;99.90
12115;DHT22;6121;49.810;6.418;2024-01-07T02:56:19;3.90;99.90
12115;DHT22;6121;49.810;6.418;2024-01-07T02:58:45;3.90;99.90
12115;DHT22;6121;49.810;6.418;2024-01-07T03:01:11;4.00;99.90
12115;DHT22;6121;49.810;6.418;2024-01-07T03:06:03;3.90;99.90
12115;DHT22;6121;49.810;6.418;2024-01-07T03:08:29;4.00;99.90
12115;DHT22;6121;49.810;6.418;2024-01-07T03:10:55;3.90;99.90
12115;DHT22;6121;49.810;6.418;2024-01-07T03:13:21;4.30;99.90
12115;DHT22;6121;49.810;6.418;2024-01-07T03:15:47;4.00;99.90
12115;DHT22;6121;49.810;6.418;2024-01-07T03:18:13;3.80;99.90
12115;DHT22;6121;49.810;6.418;2024-01-07T03:20:39;4.00;99.90
12115;DHT22;6121;49.810;6.418;2024-01-07T03:27:57;4.00;99.90
12115;DHT22;6121;49.810;6.418;2024-01-07T03:30:23;3.90;99.90
12115;DHT22;6121;49.810;6.418;2024-01-07T03:32:49;3.90;99.90
12115;DHT22;6121;49.810;6.418;2024-01-07T03:35:15;3.80;99.90
12115;DHT22;6121;49.810;6.418;2024-01-07T03:40:11;3.90;99.90
12115;DHT22;6121;49.810;6.418;2024-01-07T03:45:06;3.80;99.90
12115;DHT22;6121;49.810;6.418;2024-01-07T03:49:59;3.70;99.90
12115;DHT22;6121;49.810;6.418;2024-01-07T03:54:51;3.60;99.90
12115;DHT22;6121;49.810;6.418;2024-01-07T03:57:16;3.70;99.90
12115;DHT22;6121;49.810;6.418;2024-01-07T03:59:42;3.70;99.90
12115;DHT22;6121;49.810;6.418;2024-01-07T04:02:09;3.90;99.90
12115;DHT22;6121;49.810;6.418;2024-01-07T04:09:27;3.70;99.90
12115;DHT22;6121;49.810;6.418;2024-01-07T04:14:22;3.70;99.90
12115;DHT22;6121;49.810;6.418;2024-01-07T04:16:47;4.10;99.90
12115;DHT22;6121;49.810;6.418;2024-01-07T04:21:40;3.70;99.90
12115;DHT22;6121;49.810;6.418;2024-01-07T04:24:10;3.80;99.90
12115;DHT22;6121;49.810;6.418;2024-01-07T04:26:36;3.70;99.90
12115;DHT22;6121;49.810;6.418;2024-01-07T04:29:02;3.80;99.90
12115;DHT22;6121;49.810;6.418;2024-01-07T04:31:28;3.70;99.90
12115;DHT22;6121;49.810;6.418;2024-01-07T04:36:20;3.70;99.90
12115;DHT22;6121;49.810;6.418;2024-01-07T04:41:12;3.60;99.90
12115;DHT22;6121;49.810;6.418;2024-01-07T04:50:56;3.70;99.90
12115;DHT22;6121;49.810;6.418;2024-01-07T04:53:22;3.70;99.90
12115;DHT22;6121;49.810;6.418;2024-01-07T04:55:48;3.70;99.90
12115;DHT22;6121;49.810;6.418;2024-01-07T04:58:14;3.70;99.90
12115;DHT22;6121;49.810;6.418;2024-01-07T05:00:40;3.70;99.90
12115;DHT22;6121;49.810;6.418;2024-01-07T05:05:32;3.70;99.90
12115;DHT22;6121;49.810;6.418;2024-01-07T05:07:58;3.70;99.90
12115;DHT22;6121;49.810;6.418;2024-01-07T05:12:52;3.70;99.90
12115;DHT22;6121;49.810;6.418;2024-01-07T05:15:18;4.00;99.90
12115;DHT22;6121;49.810;6.418;2024-01-07T05:20:10;3.70;99.90
12115;DHT22;6121;49.810;6.418;2024-01-07T05:22:36;3.70;99.90
12115;DHT22;6121;49.810;6.418;2024-01-07T05:25:02;3.80;99.90
12115;DHT22;6121;49.810;6.418;2024-01-07T05:27:28;3.80;99.90
12115;DHT22;6121;49.810;6.418;2024-01-07T05:32:21;3.70;99.90
12115;DHT22;6121;49.810;6.418;2024-01-07T05:34:47;3.80;99.90
12115;DHT22;6121;49.810;6.418;2024-01-07T05:37:13;3.80;99.90
12115;DHT22;6121;49.810;6.418;2024-01-07T05:39:38;3.70;99.90
12115;DHT22;6121;49.810;6.418;2024-01-07T05:42:04;3.70;99.90
12115;DHT22;6121;49.810;6.418;2024-01-07T05:44:30;3.80;99.90
12115;DHT22;6121;49.810;6.418;2024-01-07T05:49:22;3.90;99.90
12115;DHT22;6121;49.810;6.418;2024-01-07T05:54:14;3.90;99.90
12115;DHT22;6121;49.810;6.418;2024-01-07T05:56:40;3.80;99.90
12115;DHT22;6121;49.810;6.418;2024-01-07T06:01:33;3.90;99.90
12115;DHT22;6121;49.810;6.418;2024-01-07T06:06:25;4.00;99.90
12115;DHT22;6121;49.810;6.418;2024-01-07T06:13:44;3.90;99.90
12115;DHT22;6121;49.810;6.418;2024-01-07T06:16:10;3.90;99.90
12115;DHT22;6121;49.810;6.418;2024-01-07T06:18:36;3.80;99.90
12115;DHT22;6121;49.810;6.418;2024-01-07T06:23:28;3.90;99.90
12115;DHT22;6121;49.810;6.418;2024-01-07T06:25:54;3.90;99.90
12115;DHT22;6121;49.810;6.418;2024-01-07T06:28:20;3.80;99.90
12115;DHT22;6121;49.810;6.418;2024-01-07T06:30:46;3.80;99.90
12115;DHT22;6121;49.810;6.418;2024-01-07T06:33:12;3.90;99.90
12115;DHT22;6121;49.810;6.418;2024-01-07T06:35:38;3.90;99.90
12115;DHT22;6121;49.810;6.418;2024-01-07T06:38:04;3.90;99.90
12115;DHT22;6121;49.810;6.418;2024-01-07T06:40:30;3.90;99.90
12115;DHT22;6121;49.810;6.418;2024-01-07T06:42:56;3.80;99.90
12115;DHT22;6121;49.810;6.418;2024-01-07T06:47:48;3.80;99.90
12115;DHT22;6121;49.810;6.418;2024-01-07T06:50:14;3.80;99.90
12115;DHT22;6121;49.810;6.418;2024-01-07T06:57:33;3.90;99.90
12115;DHT22;6121;49.810;6.418;2024-01-07T07:02:26;3.90;99.90
12115;DHT22;6121;49.810;6.418;2024-01-07T07:04:51;3.90;99.90
12115;DHT22;6121;49.810;6.418;2024-01-07T07:07:17;3.90;99.90
12115;DHT22;6121;49.810;6.418;2024-01-07T07:09:43;3.90;99.90
12115;DHT22;6121;49.810;6.418;2024-01-07T07:12:11;3.90;99.90
12115;DHT22;6121;49.810;6.418;2024-01-07T07:14:37;3.90;99.90
12115;DHT22;6121;49.810;6.418;2024-01-07T07:17:03;3.90;99.90
12115;DHT22;6121;49.810;6.418;2024-01-07T07:19:29;3.90;99.90
12115;DHT22;6121;49.810;6.418;2024-01-07T07:21:55;3.90;99.90
12115;DHT22;6121;49.810;6.418;2024-01-07T07:24:21;3.90;99.90
12115;DHT22;6121;49.810;6.418;2024-01-07T07:26:47;3.90;99.90
12115;DHT22;6121;49.810;6.418;2024-01-07T07:29:13;3.90;99.90
12115;DHT22;6121;49.810;6.418;2024-01-07T07:31:39;3.90;99.90
12115;DHT22;6121;49.810;6.418;2024-01-07T07:34:05;3.90;99.90
12115;DHT22;6121;49.810;6.418;2024-01-07T07:36:31;3.90;99.90
12115;DHT22;6121;49.810;6.418;2024-01-07T07:41:24;3.80;99.90
12115;DHT22;6121;49.810;6.418;2024-01-07T07:43:49;3.80;99.90
12115;DHT22;6121;49.810;6.418;2024-01-07T07:46:15;3.70;99.90
12115;DHT22;6121;49.810;6.418;2024-01-07T07:51:08;3.80;99.90
12115;DHT22;6121;49.810;6.418;2024-01-07T07:53:34;3.80;99.90
12115;DHT22;6121;49.810;6.418;2024-01-07T07:56:01;3.90;99.90
12115;DHT22;6121;49.810;6.418;2024-01-07T07:58:26;3.80;99.90
12115;DHT22;6121;49.810;6.418;2024-01-07T08:00:52;3.80;99.90
12115;DHT22;6121;49.810;6.418;2024-01-07T08:05:44;4.00;99.90
12115;DHT22;6121;49.810;6.418;2024-01-07T08:10:36;3.90;99.90
12115;DHT22;6121;49.810;6.418;2024-01-07T08:13:02;3.90;99.90
12115;DHT22;6121;49.810;6.418;2024-01-07T08:15:28;3.90;99.90
12115;DHT22;6121;49.810;6.418;2024-01-07T08:17:54;3.90;99.90
12115;DHT22;6121;49.810;6.418;2024-01-07T08:20:21;3.90;99.90
12115;DHT22;6121;49.810;6.418;2024-01-07T08:27:41;3.80;99.90
12115;DHT22;6121;49.810;6.418;2024-01-07T08:30:07;3.90;99.90
12115;DHT22;6121;49.810;6.418;2024-01-07T08:32:33;3.90;99.90
12115;DHT22;6121;49.810;6.418;2024-01-07T08:35:01;3.90;99.90
12115;DHT22;6121;49.810;6.418;2024-01-07T08:37:26;3.90;99.90
12115;DHT22;6121;49.810;6.418;2024-01-07T08:39:52;4.10;99.90
12115;DHT22;6121;49.810;6.418;2024-01-07T08:42:19;4.00;99.90
12115;DHT22;6121;49.810;6.418;2024-01-07T08:44:45;4.00;99.90
12115;DHT22;6121;49.810;6.418;2024-01-07T08:47:13;4.00;99.90
12115;DHT22;6121;49.810;6.418;2024-01-07T08:49:39;3.90;99.90
12115;DHT22;6121;49.810;6.418;2024-01-07T08:52:05;3.90;99.90
12115;DHT22;6121;49.810;6.418;2024-01-07T08:56:58;4.10;99.90
12115;DHT22;6121;49.810;6.418;2024-01-07T09:01:50;4.00;99.90
12115;DHT22;6121;49.810;6.418;2024-01-07T09:04:16;4.00;99.90
12115;DHT22;6121;49.810;6.418;2024-01-07T09:06:46;4.40;99.90
12115;DHT22;6121;49.810;6.418;2024-01-07T09:09:12;4.10;99.90
12115;DHT22;6121;49.810;6.418;2024-01-07T09:11:38;4.00;99.90
12115;DHT22;6121;49.810;6.418;2024-01-07T09:16:30;4.10;99.90
12115;DHT22;6121;49.810;6.418;2024-01-07T09:18:56;4.20;99.90
12115;DHT22;6121;49.810;6.418;2024-01-07T09:21:22;4.00;99.90
12115;DHT22;6121;49.810;6.418;2024-01-07T09:28:44;4.10;99.90
12115;DHT22;6121;49.810;6.418;2024-01-07T09:31:09;4.10;99.90
12115;DHT22;6121;49.810;6.418;2024-01-07T09:33:35;4.10;99.90
12115;DHT22;6121;49.810;6.418;2024-01-07T09:36:07;4.10;99.90
12115;DHT22;6121;49.810;6.418;2024-01-07T09:38:33;4.20;99.90
12115;DHT22;6121;49.810;6.418;2024-01-07T09:40:59;3.90;99.90
12115;DHT22;6121;49.810;6.418;2024-01-07T09:43:25;4.30;99.90
12115;DHT22;6121;49.810;6.418;2024-01-07T09:45:51;4.20;99.90
12115;DHT22;6121;49.810;6.418;2024-01-07T09:53:15;4.30;99.90
12115;DHT22;6121;49.810;6.418;2024-01-07T09:58:16;4.20;99.90
12115;DHT22;6121;49.810;6.418;2024-01-07T10:00:42;4.30;99.90
12115;DHT22;6121;49.810;6.418;2024-01-07T10:03:08;4.30;99.90
12115;DHT22;6121;49.810;6.418;2024-01-07T10:05:34;4.30;99.90
12115;DHT22;6121;49.810;6.418;2024-01-07T10:08:00;4.30;99.90
12115;DHT22;6121;49.810;6.418;2024-01-07T10:10:28;4.40;99.90
12115;DHT22;6121;49.810;6.418;2024-01-07T10:12:54;4.30;99.90
12115;DHT22;6121;49.810;6.418;2024-01-07T10:15:22;4.30;99.90
12115;DHT22;6121;49.810;6.418;2024-01-07T10:20:16;4.20;99.90
12115;DHT22;6121;49.810;6.418;2024-01-07T10:22:46;4.20;99.90
12115;DHT22;6121;49.810;6.418;2024-01-07T10:25:14;4.30;99.90
12115;DHT22;6121;49.810;6.418;2024-01-07T10:27:40;4.30;99.90
12115;DHT22;6121;49.810;6.418;2024-01-07T10:30:06;4.40;99.90
12115;DHT22;6121;49.810;6.418;2024-01-07T10:32:32;4.40;99.90
12115;DHT22;6121;49.810;6.418;2024-01-07T10:35:03;4.40;99.90
12115;DHT22;6121;49.810;6.418;2024-01-07T10:37:30;4.30;99.90
12115;DHT22;6121;49.810;6.418;2024-01-07T10:42:32;4.30;99.90
12115;DHT22;6121;49.810;6.418;2024-01-07T10:45:01;4.70;99.90
12115;DHT22;6121;49.810;6.418;2024-01-07T10:57:43;4.40;99.90
12115;DHT22;6121;49.810;6.418;2024-01-07T11:00:11;4.40;99.90
12115;DHT22;6121;49.810;6.418;2024-01-07T11:13:41;4.50;99.90
12115;DHT22;6121;49.810;6.418;2024-01-07T11:16:09;4.60;99.90
12115;DHT22;6121;49.810;6.418;2024-01-07T11:18:54;4.60;99.90
12115;DHT22;6121;49.810;6.418;2024-01-07T11:21:23;4.50;99.90
12115;DHT22;6121;49.810;6.418;2024-01-07T11:23:52;4.50;99.90
12115;DHT22;6121;49.810;6.418;2024-01-07T11:28:54;4.50;99.90
12115;DHT22;6121;49.810;6.418;2024-01-07T11:34:07;4.50;99.90
12115;DHT22;6121;49.810;6.418;2024-01-07T11:36:37;4.50;99.90
12115;DHT22;6121;49.810;6.418;2024-01-07T11:41:35;4.40;99.90
12115;DHT22;6121;49.810;6.418;2024-01-07T11:44:01;4.30;99.90
12115;DHT22;6121;49.810;6.418;2024-01-07T11:46:29;4.30;99.90
12115;DHT22;6121;49.810;6.418;2024-01-07T11:48:59;4.40;99.90
12115;DHT22;6121;49.810;6.418;2024-01-07T11:53:52;4.40;99.90
12115;DHT22;6121;49.810;6.418;2024-01-07T11:56:18;4.30;99.90
12115;DHT22;6121;49.810;6.418;2024-01-07T11:58:44;4.30;99.90
12115;DHT22;6121;49.810;6.418;2024-01-07T12:08:30;4.20;99.90
12115;DHT22;6121;49.810;6.418;2024-01-07T12:10:56;4.30;99.90
12115;DHT22;6121;49.810;6.418;2024-01-07T12:13:22;4.20;99.90
12115;DHT22;6121;49.810;6.418;2024-01-07T12:15:48;4.20;99.90
12115;DHT22;6121;49.810;6.418;2024-01-07T12:18:14;4.20;99.90
12115;DHT22;6121;49.810;6.418;2024-01-07T12:20:40;4.20;99.90
12115;DHT22;6121;49.810;6.418;2024-01-07T12:23:09;4.20;99.90
12115;DHT22;6121;49.810;6.418;2024-01-07T12:25:36;4.20;99.90
12115;DHT22;6121;49.810;6.418;2024-01-07T12:28:07;4.10;99.90
12115;DHT22;6121;49.810;6.418;2024-01-07T12:30:34;4.10;99.90
12115;DHT22;6121;49.810;6.418;2024-01-07T12:33:04;4.10;99.90
12115;DHT22;6121;49.810;6.418;2024-01-07T12:35:30;4.20;99.90
12115;DHT22;6121;49.810;6.418;2024-01-07T12:37:56;4.30;99.90
12115;DHT22;6121;49.810;6.418;2024-01-07T12:40:24;4.40;99.90
12115;DHT22;6121;49.810;6.418;2024-01-07T12:42:55;4.40;99.90
12115;DHT22;6121;49.810;6.418;2024-01-07T12:45:22;4.40;99.90
12115;DHT22;6121;49.810;6.418;2024-01-07T12:47:48;4.30;99.90
12115;DHT22;6121;49.810;6.418;2024-01-07T12:50:14;4.40;99.90
12115;DHT22;6121;49.810;6.418;2024-01-07T12:55:08;4.50;99.90
12115;DHT22;6121;49.810;6.418;2024-01-07T12:57:34;4.30;99.90
12115;DHT22;6121;49.810;6.418;2024-01-07T13:00:00;4.40;99.90
12115;DHT22;6121;49.810;6.418;2024-01-07T13:02:26;4.50;99.90
12115;DHT22;6121;49.810;6.418;2024-01-07T13:04:52;4.40;99.90
12115;DHT22;6121;49.810;6.418;2024-01-07T13:07:18;4.40;99.90
12115;DHT22;6121;49.810;6.418;2024-01-07T13:09:53;4.30;99.90
12115;DHT22;6121;49.810;6.418;2024-01-07T13:12:19;4.30;99.90
12115;DHT22;6121;49.810;6.418;2024-01-07T13:14:45;4.60;99.90
12115;DHT22;6121;49.810;6.418;2024-01-07T13:17:13;4.30;99.90
12115;DHT22;6121;49.810;6.418;2024-01-07T13:19:39;4.30;99.90
12115;DHT22;6121;49.810;6.418;2024-01-07T13:24:31;4.30;99.90
12115;DHT22;6121;49.810;6.418;2024-01-07T13:26:57;4.20;99.90
12115;DHT22;6121;49.810;6.418;2024-01-07T13:29:26;4.10;99.90
12115;DHT22;6121;49.810;6.418;2024-01-07T13:34:18;4.20;99.90
12115;DHT22;6121;49.810;6.418;2024-01-07T13:36:44;4.10;99.90
12115;DHT22;6121;49.810;6.418;2024-01-07T13:39:10;4.10;99.90
12115;DHT22;6121;49.810;6.418;2024-01-07T13:41:39;4.30;99.90
12115;DHT22;6121;49.810;6.418;2024-01-07T13:44:05;4.30;99.90
12115;DHT22;6121;49.810;6.418;2024-01-07T13:48:59;4.30;99.90
12115;DHT22;6121;49.810;6.418;2024-01-07T13:51:34;4.30;99.90
12115;DHT22;6121;49.810;6.418;2024-01-07T13:54:03;4.30;99.90
12115;DHT22;6121;49.810;6.418;2024-01-07T13:56:29;4.40;99.90
12115;DHT22;6121;49.810;6.418;2024-01-07T13:58:55;4.90;99.90
12115;DHT22;6121;49.810;6.418;2024-01-07T14:01:21;4.30;99.90
12115;DHT22;6121;49.810;6.418;2024-01-07T14:03:47;4.30;99.90
12115;DHT22;6121;49.810;6.418;2024-01-07T14:08:51;4.40;99.90
12115;DHT22;6121;49.810;6.418;2024-01-07T14:11:20;4.30;99.90
12115;DHT22;6121;49.810;6.418;2024-01-07T14:13:47;4.40;99.90
12115;DHT22;6121;49.810;6.418;2024-01-07T14:18:41;4.30;99.90
12115;DHT22;6121;49.810;6.418;2024-01-07T14:30:55;4.10;99.90
12115;DHT22;6121;49.810;6.418;2024-01-07T14:33:21;4.10;99.90
12115;DHT22;6121;49.810;6.418;2024-01-07T14:38:13;4.10;99.90
12115;DHT22;6121;49.810;6.418;2024-01-07T14:40:39;4.00;99.90
12115;DHT22;6121;49.810;6.418;2024-01-07T14:43:07;4.80;99.90
12115;DHT22;6121;49.810;6.418;2024-01-07T14:45:34;4.00;99.90
12115;DHT22;6121;49.810;6.418;2024-01-07T14:48:00;4.00;99.90
12115;DHT22;6121;49.810;6.418;2024-01-07T14:52:52;3.90;99.90
12115;DHT22;6121;49.810;6.418;2024-01-07T14:57:45;4.00;99.90
12115;DHT22;6121;49.810;6.418;2024-01-07T15:00:11;4.00;99.90
12115;DHT22;6121;49.810;6.418;2024-01-07T15:02:37;3.90;99.90
12115;DHT22;6121;49.810;6.418;2024-01-07T15:05:06;3.80;99.90
12115;DHT22;6121;49.810;6.418;2024-01-07T15:10:01;3.80;99.90
12115;DHT22;6121;49.810;6.418;2024-01-07T15:12:27;3.80;99.90
12115;DHT22;6121;49.810;6.418;2024-01-07T15:17:34;3.80;99.90
12115;DHT22;6121;49.810;6.418;2024-01-07T15:20:00;3.80;99.90
12115;DHT22;6121;49.810;6.418;2024-01-07T15:27:21;3.90;99.90
12115;DHT22;6121;49.810;6.418;2024-01-07T15:32:16;3.90;99.90
12115;DHT22;6121;49.810;6.418;2024-01-07T15:37:08;3.90;99.90
12115;DHT22;6121;49.810;6.418;2024-01-07T15:39:39;4.00;99.90
12115;DHT22;6121;49.810;6.418;2024-01-07T15:51:51;3.70;99.90
12115;DHT22;6121;49.810;6.418;2024-01-07T15:54:17;3.70;99.90
12115;DHT22;6121;49.810;6.418;2024-01-07T15:56:43;3.60;99.90
12115;DHT22;6121;49.810;6.418;2024-01-07T15:59:09;3.90;99.90
12115;DHT22;6121;49.810;6.418;2024-01-07T16:01:35;3.60;99.90
12115;DHT22;6121;49.810;6.418;2024-01-07T16:06:27;3.80;99.90
12115;DHT22;6121;49.810;6.418;2024-01-07T16:08:53;3.60;99.90
12115;DHT22;6121;49.810;6.418;2024-01-07T16:11:19;3.90;99.90
12115;DHT22;6121;49.810;6.418;2024-01-07T16:13:45;3.60;99.90
12115;DHT22;6121;49.810;6.418;2024-01-07T16:16:11;3.60;99.90
12115;DHT22;6121;49.810;6.418;2024-01-07T16:18:37;3.60;99.90
12115;DHT22;6121;49.810;6.418;2024-01-07T16:21:03;3.40;99.90
12115;DHT22;6121;49.810;6.418;2024-01-07T16:23:32;3.50;99.90
12115;DHT22;6121;49.810;6.418;2024-01-07T16:28:25;3.50;99.90
12115;DHT22;6121;49.810;6.418;2024-01-07T16:30:51;4.00;99.90
12115;DHT22;6121;49.810;6.418;2024-01-07T16:35:44;3.30;99.90
12115;DHT22;6121;49.810;6.418;2024-01-07T16:38:09;3.40;99.90
12115;DHT22;6121;49.810;6.418;2024-01-07T16:40:35;3.30;99.90
12115;DHT22;6121;49.810;6.418;2024-01-07T16:43:01;3.10;99.90
12115;DHT22;6121;49.810;6.418;2024-01-07T16:45:28;3.00;99.90
12115;DHT22;6121;49.810;6.418;2024-01-07T16:47:54;3.10;99.90
12115;DHT22;6121;49.810;6.418;2024-01-07T16:52:47;3.10;99.90
12115;DHT22;6121;49.810;6.418;2024-01-07T16:55:13;3.00;99.90
12115;DHT22;6121;49.810;6.418;2024-01-07T16:57:39;3.00;99.90
12115;DHT22;6121;49.810;6.418;2024-01-07T17:00:05;3.10;99.90
12115;DHT22;6121;49.810;6.418;2024-01-07T17:02:32;3.00;99.90
12115;DHT22;6121;49.810;6.418;2024-01-07T17:07:27;2.90;99.90
12115;DHT22;6121;49.810;6.418;2024-01-07T17:09:56;2.90;99.90
12115;DHT22;6121;49.810;6.418;2024-01-07T17:12:22;2.70;99.90
12115;DHT22;6121;49.810;6.418;2024-01-07T17:14:48;2.80;99.90
12115;DHT22;6121;49.810;6.418;2024-01-07T17:19:48;2.80;99.90
12115;DHT22;6121;49.810;6.418;2024-01-07T17:22:17;2.70;99.90
12115;DHT22;6121;49.810;6.418;2024-01-07T17:24:43;2.90;99.90
12115;DHT22;6121;49.810;6.418;2024-01-07T17:27:15;2.70;99.90
12115;DHT22;6121;49.810;6.418;2024-01-07T17:29:40;2.70;99.90
12115;DHT22;6121;49.810;6.418;2024-01-07T17:32:06;2.60;99.90
12115;DHT22;6121;49.810;6.418;2024-01-07T17:34:35;2.60;99.90
12115;DHT22;6121;49.810;6.418;2024-01-07T17:37:01;2.70;99.90
12115;DHT22;6121;49.810;6.418;2024-01-07T17:39:28;2.50;99.90
12115;DHT22;6121;49.810;6.418;2024-01-07T17:41:54;2.70;99.90
12115;DHT22;6121;49.810;6.418;2024-01-07T17:44:23;2.60;99.90
12115;DHT22;6121;49.810;6.418;2024-01-07T17:46:50;2.60;99.90
